Terminal Aerodrome Forecast
Issued by NWS Sioux Falls, SD

Home | Current Version | Previous Version | Graphics & Text | Print | Product List | Glossary On
Versions: 1 2 3 4 5 6 7 8 9 10 11 12 13 14 15
000
FTUS43 KFSD 261132
TAFSUX
TAF
KSUX 261132Z 2612/2712 VRB03KT P6SM FEW200
     FM261600 13007KT P6SM SCT250
     FM270100 12007KT P6SM OVC100
     FM270400 12005KT P6SM -SHRA OVC040
     FM270800 12004KT 2SM -SHRA BR OVC015
     FM271000 VRB03KT 3SM BR OVC010=

USA.gov is the U.S. government's official web portal to all federal, state and local government web resources and services.